createdAt,value
2022-08-22T00:01:20.168Z,90776.25
2022-08-22T00:03:03.566Z,90827.13
2022-08-22T00:03:10.556Z,90804.44
2022-08-22T00:04:41.638Z,90783.72
2022-08-22T00:07:25.311Z,90795.38
2022-08-22T00:10:11.631Z,90796.00
2022-08-22T00:12:50.672Z,90803.69
2022-08-22T00:15:42.538Z,90801.56
2022-08-22T00:18:28.629Z,90797.06
2022-08-22T00:21:13.258Z,90804.69
2022-08-22T00:23:49.459Z,90794.97
2022-08-22T00:26:45.622Z,90803.91
2022-08-22T00:29:44.410Z,90809.03
2022-08-22T00:32:25.195Z,90801.41
2022-08-22T00:35:13.427Z,90798.59
2022-08-22T00:37:45.070Z,90795.84
2022-08-22T00:40:24.090Z,90792.53
2022-08-22T00:43:09.344Z,90792.00
2022-08-22T00:45:57.881Z,90798.81
2022-08-22T00:48:42.880Z,90806.44
2022-08-22T00:51:25.239Z,90795.00
2022-08-22T00:54:17.850Z,90793.69
2022-08-22T00:57:15.955Z,90788.94
2022-08-22T01:00:00.909Z,90784.19
2022-08-22T01:02:53.266Z,90781.81
2022-08-22T01:05:44.967Z,90788.56
2022-08-22T01:08:30.390Z,90801.28
2022-08-22T01:11:06.042Z,90801.31
2022-08-22T01:13:51.368Z,90796.69
2022-08-22T01:16:17.941Z,90787.41
2022-08-22T01:19:08.851Z,90792.06
2022-08-22T01:22:13.012Z,90791.63
2022-08-22T01:25:15.900Z,90792.22
2022-08-22T01:28:17.273Z,90785.75
2022-08-22T01:31:11.807Z,90783.44
2022-08-22T01:33:41.398Z,90783.84
2022-08-22T01:36:31.147Z,90786.25
2022-08-22T01:39:16.159Z,90786.44
2022-08-22T01:42:20.273Z,90779.16
2022-08-22T01:45:24.917Z,90785.84
2022-08-22T01:48:00.874Z,90775.94
2022-08-22T01:50:38.844Z,90783.19
2022-08-22T01:53:26.093Z,90778.81
2022-08-22T01:56:04.644Z,90773.19
2022-08-22T01:58:36.333Z,90777.22
2022-08-22T02:01:28.321Z,90781.13
2022-08-22T02:04:10.361Z,90787.25
2022-08-22T02:07:03.320Z,90781.47
2022-08-22T02:09:38.695Z,90785.91
2022-08-22T02:12:21.406Z,90787.78
2022-08-22T02:15:16.445Z,90783.78
2022-08-22T02:18:12.439Z,90777.84
2022-08-22T02:20:43.474Z,90780.72
2022-08-22T02:23:30.126Z,90784.53
2022-08-22T02:26:07.459Z,90775.50
2022-08-22T02:28:50.234Z,90778.13
2022-08-22T02:31:37.186Z,90777.09
2022-08-22T02:34:17.528Z,90774.16
2022-08-22T02:36:50.305Z,90769.53
2022-08-22T02:39:23.212Z,90772.47
2022-08-22T02:42:42.079Z,90749.84
2022-08-22T02:45:30.479Z,90766.88
2022-08-22T02:48:06.632Z,90763.81
2022-08-22T02:50:47.576Z,90763.59
2022-08-22T02:53:30.560Z,90760.06
2022-08-22T02:56:06.733Z,90756.44
2022-08-22T02:58:51.715Z,90755.69
2022-08-22T03:01:25.411Z,90754.06
2022-08-22T03:04:13.028Z,90758.69
2022-08-22T03:06:43.817Z,90755.03
2022-08-22T03:09:16.224Z,90766.84
2022-08-22T03:11:49.512Z,90758.56
2022-08-22T03:14:42.724Z,90764.16
2022-08-22T03:17:25.622Z,90767.03
2022-08-22T03:20:16.691Z,90761.66
2022-08-22T03:22:49.216Z,90760.09
2022-08-22T03:25:39.784Z,90768.88
2022-08-22T03:28:13.457Z,90775.09
2022-08-22T03:30:46.806Z,90772.53
2022-08-22T03:33:20.298Z,90771.25
2022-08-22T03:35:46.959Z,90773.31
2022-08-22T03:38:22.431Z,90775.06
2022-08-22T03:41:43.666Z,90776.44
2022-08-22T03:44:16.288Z,90773.13
2022-08-22T03:46:57.212Z,90770.81
2022-08-22T03:49:33.071Z,90772.84
2022-08-22T03:52:09.256Z,90780.09
2022-08-22T03:54:53.959Z,90778.59
2022-08-22T03:57:55.412Z,90788.00
2022-08-22T04:00:48.611Z,90785.88
2022-08-22T04:03:42.256Z,90795.13
2022-08-22T04:06:45.914Z,90796.72
2022-08-22T04:09:34.952Z,90795.13
2022-08-22T04:12:32.290Z,90802.09
2022-08-22T04:15:36.550Z,90800.59
2022-08-22T04:18:40.905Z,90803.22
2022-08-22T04:21:22.784Z,90798.31
2022-08-22T04:24:23.668Z,90799.66
2022-08-22T04:27:07.506Z,90800.16
2022-08-22T04:29:43.121Z,90799.75
2022-08-22T04:32:15.301Z,90801.00
2022-08-22T04:34:44.669Z,90791.72
2022-08-22T04:37:17.282Z,90802.13
2022-08-22T04:40:19.500Z,90781.13
2022-08-22T04:43:03.972Z,90809.00
2022-08-22T04:45:50.453Z,90810.88
2022-08-22T04:48:36.437Z,90805.91
2022-08-22T04:51:35.594Z,90804.38
2022-08-22T04:54:08.266Z,90808.47
2022-08-22T04:56:59.829Z,90802.19
2022-08-22T04:59:28.842Z,90816.53
2022-08-22T05:02:06.697Z,90805.19
2022-08-22T05:04:42.059Z,90811.47
2022-08-22T05:07:17.793Z,90808.63
2022-08-22T05:09:52.903Z,90814.78
2022-08-22T05:12:29.129Z,90814.13
2022-08-22T05:15:16.052Z,90812.88
2022-08-22T05:17:53.619Z,90814.53
2022-08-22T05:20:24.187Z,90825.41
2022-08-22T05:22:55.995Z,90823.91
2022-08-22T05:25:29.420Z,90823.69
2022-08-22T05:28:12.141Z,90824.13
2022-08-22T05:30:40.012Z,90828.63
2022-08-22T05:33:12.710Z,90829.09
2022-08-22T05:35:50.211Z,90826.31
2022-08-22T05:38:23.356Z,90830.94
2022-08-22T05:40:59.767Z,90822.34
2022-08-22T05:43:26.885Z,90834.94
2022-08-22T05:45:58.524Z,90835.66
2022-08-22T05:48:37.773Z,90831.69
2022-08-22T05:51:18.129Z,90830.84
2022-08-22T05:53:51.499Z,90836.75
2022-08-22T05:56:43.384Z,90829.91
2022-08-22T05:59:28.388Z,90834.38
2022-08-22T06:02:09.587Z,90835.28
2022-08-22T06:04:46.179Z,90820.41
2022-08-22T06:07:16.933Z,90836.56
2022-08-22T06:09:46.787Z,90831.53
2022-08-22T06:12:24.080Z,90830.97
2022-08-22T06:15:02.730Z,90837.38
2022-08-22T06:17:55.625Z,90830.31
2022-08-22T06:20:37.976Z,90837.81
2022-08-22T06:23:07.436Z,90829.59
2022-08-22T06:25:38.937Z,90827.94
2022-08-22T06:28:23.379Z,90827.13
2022-08-22T06:30:53.979Z,90831.31
2022-08-22T06:33:29.478Z,90834.78
2022-08-22T06:36:23.384Z,90829.34
2022-08-22T06:38:53.009Z,90828.94
2022-08-22T06:41:22.597Z,90830.84
2022-08-22T06:43:54.746Z,90833.56
2022-08-22T06:46:24.814Z,90831.94
2022-08-22T06:48:54.672Z,90837.63
2022-08-22T06:51:25.098Z,90842.72
2022-08-22T06:53:56.706Z,90837.69
2022-08-22T06:56:34.767Z,90831.13
2022-08-22T06:59:07.882Z,90832.81
2022-08-22T07:01:42.893Z,90823.22
2022-08-22T07:04:10.952Z,90828.31
2022-08-22T07:06:41.584Z,90833.69
2022-08-22T07:09:20.141Z,90843.19
2022-08-22T07:11:47.138Z,90830.94
2022-08-22T07:14:24.550Z,90836.63
2022-08-22T07:17:00.596Z,90837.19
2022-08-22T07:19:30.513Z,90842.94
2022-08-22T07:21:58.221Z,90838.88
2022-08-22T07:24:29.766Z,90838.22
2022-08-22T07:27:25.246Z,90851.72
2022-08-22T07:30:12.917Z,90850.09
2022-08-22T07:33:26.398Z,90846.44
2022-08-22T07:36:05.344Z,90847.38
2022-08-22T07:38:43.136Z,90847.81
2022-08-22T07:41:20.594Z,90846.56
2022-08-22T07:44:06.565Z,90852.41
2022-08-22T07:46:38.137Z,90852.31
2022-08-22T07:49:14.528Z,90850.31
2022-08-22T07:51:42.997Z,90843.13
2022-08-22T07:54:13.503Z,90845.81
2022-08-22T07:56:52.233Z,90839.94
2022-08-22T07:59:20.767Z,90846.72
2022-08-22T08:01:53.489Z,90839.81
2022-08-22T08:04:27.478Z,90830.44
2022-08-22T08:07:02.056Z,90825.44
2022-08-22T08:09:36.847Z,90830.97
2022-08-22T08:12:06.267Z,90835.13
2022-08-22T08:14:39.907Z,90830.38
2022-08-22T08:17:28.782Z,90827.63
2022-08-22T08:20:00.435Z,90829.78
2022-08-22T08:22:32.615Z,90829.84
2022-08-22T08:25:00.724Z,90835.25
2022-08-22T08:27:51.322Z,90824.59
2022-08-22T08:30:32.833Z,90835.09
2022-08-22T08:33:25.285Z,90828.38
2022-08-22T08:36:02.894Z,90825.69
2022-08-22T08:38:36.714Z,90827.78
2022-08-22T08:41:42.514Z,90830.53
2022-08-22T08:44:41.376Z,90836.44
2022-08-22T08:47:46.087Z,90830.63
2022-08-22T08:50:38.296Z,90825.97
2022-08-22T08:53:32.326Z,90818.47
2022-08-22T08:56:04.065Z,90811.25
2022-08-22T08:58:43.395Z,90819.56
2022-08-22T09:01:14.125Z,90817.81
2022-08-22T09:04:06.795Z,90818.09
2022-08-22T09:06:56.647Z,90812.59
2022-08-22T09:09:46.157Z,90817.66
2022-08-22T09:12:56.167Z,90822.31
2022-08-22T09:16:04.977Z,90828.59
2022-08-22T09:19:03.350Z,90833.09
2022-08-22T09:21:41.870Z,90826.66
2022-08-22T09:24:15.267Z,90829.72
2022-08-22T09:26:53.908Z,90814.81
2022-08-22T09:29:30.426Z,90823.06
2022-08-22T09:32:19.131Z,90815.25
2022-08-22T09:35:03.420Z,90818.50
2022-08-22T09:37:58.754Z,90820.53
2022-08-22T09:40:35.831Z,90826.31
2022-08-22T09:43:21.053Z,90824.00
2022-08-22T09:46:05.671Z,90819.31
2022-08-22T09:48:58.392Z,90825.81
2022-08-22T09:51:58.285Z,90831.53
2022-08-22T09:54:43.677Z,90822.84
2022-08-22T09:57:19.202Z,90823.94
2022-08-22T09:59:52.345Z,90824.47
2022-08-22T10:02:36.102Z,90834.63
2022-08-22T10:05:41.116Z,90827.44
2022-08-22T10:08:28.357Z,90824.00
2022-08-22T10:11:19.757Z,90819.75
2022-08-22T10:14:00.564Z,90821.88
2022-08-22T10:16:53.115Z,90808.28
2022-08-22T10:19:38.291Z,90817.38
2022-08-22T10:22:30.304Z,90821.31
2022-08-22T10:25:19.995Z,90815.50
2022-08-22T10:28:12.056Z,90812.34
2022-08-22T10:30:42.072Z,90817.94
2022-08-22T10:33:24.623Z,90815.72
2022-08-22T10:36:13.065Z,90809.25
2022-08-22T10:38:43.954Z,90817.13
2022-08-22T10:41:31.829Z,90824.28
2022-08-22T10:44:24.055Z,90825.81
2022-08-22T10:46:56.312Z,90824.28
2022-08-22T10:49:37.723Z,90823.34
2022-08-22T10:52:27.402Z,90823.06
2022-08-22T10:55:09.912Z,90820.91
2022-08-22T10:58:13.299Z,90824.53
2022-08-22T11:00:53.923Z,90806.03
2022-08-22T11:03:46.512Z,90820.34
2022-08-22T11:06:23.704Z,90822.88
2022-08-22T11:09:13.121Z,90815.84
2022-08-22T11:11:45.764Z,90817.44
2022-08-22T11:14:40.505Z,90828.50
2022-08-22T11:17:31.124Z,90830.03
2022-08-22T11:20:15.136Z,90820.81
2022-08-22T11:23:06.421Z,90820.91
2022-08-22T11:25:46.787Z,90814.75
2022-08-22T11:28:46.387Z,90814.00
2022-08-22T11:31:20.857Z,90815.16
2022-08-22T11:34:09.080Z,90811.69
2022-08-22T11:36:47.314Z,90812.03
2022-08-22T11:39:28.072Z,90800.19
2022-08-22T11:41:59.625Z,90805.50
2022-08-22T11:44:35.775Z,90807.72
2022-08-22T11:47:26.771Z,90815.84
2022-08-22T11:50:14.083Z,90815.28
2022-08-22T11:53:13.285Z,90815.16
2022-08-22T11:55:50.566Z,90808.97
2022-08-22T11:58:48.574Z,90813.00
2022-08-22T12:01:24.717Z,90818.44
2022-08-22T12:03:58.382Z,90814.16
2022-08-22T12:06:57.546Z,90820.81
2022-08-22T12:09:47.725Z,90831.84
2022-08-22T12:12:20.277Z,90817.09
2022-08-22T12:15:03.006Z,90814.16
2022-08-22T12:17:55.332Z,90809.53
2022-08-22T12:21:00.825Z,90821.13
2022-08-22T12:23:49.552Z,90834.38
2022-08-22T12:26:35.164Z,90833.84
2022-08-22T12:29:44.662Z,90832.19
2022-08-22T12:32:50.485Z,90834.22
2022-08-22T12:35:31.592Z,90845.31
2022-08-22T12:38:28.968Z,90835.34
2022-08-22T12:41:27.837Z,90836.59
2022-08-22T12:44:17.134Z,90843.44
2022-08-22T12:47:02.465Z,90846.63
2022-08-22T12:50:17.870Z,90844.72
2022-08-22T12:52:44.589Z,90853.41
2022-08-22T12:55:21.028Z,90867.56
2022-08-22T12:58:04.066Z,90872.16
2022-08-22T13:00:38.494Z,90872.28
2022-08-22T13:05:56.955Z,90859.75
2022-08-22T13:08:39.072Z,90867.00
2022-08-22T13:11:23.158Z,90874.41
2022-08-22T13:13:56.821Z,90893.09
2022-08-22T13:16:26.598Z,90895.09
2022-08-22T13:19:13.553Z,90893.78
2022-08-22T13:21:48.708Z,90898.03
2022-08-22T13:24:38.610Z,90904.72
2022-08-22T13:27:26.916Z,90901.53
2022-08-22T13:30:12.366Z,90897.59
2022-08-22T13:32:51.894Z,90902.44
2022-08-22T13:35:33.858Z,90901.72
2022-08-22T13:38:27.746Z,90902.75
2022-08-22T13:40:57.059Z,90879.00
2022-08-22T13:43:31.417Z,90874.91
2022-08-22T13:46:02.416Z,90874.78
2022-08-22T13:48:46.771Z,90872.72
2022-08-22T13:51:33.694Z,90872.16
2022-08-22T13:54:15.876Z,90865.84
2022-08-22T13:56:51.125Z,90862.53
2022-08-22T13:59:53.620Z,90865.75
2022-08-22T14:02:24.687Z,90860.41
2022-08-22T14:05:05.359Z,90866.06
2022-08-22T14:07:53.785Z,90869.03
2022-08-22T14:10:29.520Z,90871.19
2022-08-22T14:12:56.315Z,90864.31
2022-08-22T14:15:41.597Z,90861.34
2022-08-22T14:18:31.838Z,90864.47
2022-08-22T14:21:48.309Z,90870.63
2022-08-22T14:24:29.123Z,90864.78
2022-08-22T14:27:11.033Z,90862.94
2022-08-22T14:29:57.008Z,90865.34
2022-08-22T14:32:25.803Z,90858.78
2022-08-22T14:35:17.062Z,90859.22
2022-08-22T14:38:00.172Z,90850.25
2022-08-22T14:40:36.588Z,90850.94
2022-08-22T14:43:14.517Z,90854.09
2022-08-22T14:45:47.053Z,90851.50
2022-08-22T14:48:33.157Z,90860.81
2022-08-22T14:51:18.216Z,90849.13
2022-08-22T14:53:48.519Z,90861.19
2022-08-22T14:56:22.099Z,90844.84
2022-08-22T14:58:58.203Z,90847.69
2022-08-22T15:01:29.958Z,90847.00
2022-08-22T15:04:05.889Z,90842.84
2022-08-22T15:06:47.835Z,90833.19
2022-08-22T15:09:35.484Z,90833.56
2022-08-22T15:12:08.889Z,90838.50
2022-08-22T15:14:37.201Z,90832.22
2022-08-22T15:17:09.177Z,90833.72
2022-08-22T15:19:41.050Z,90827.03
2022-08-22T15:22:16.430Z,90831.00
2022-08-22T15:25:05.973Z,90833.28
2022-08-22T15:27:47.931Z,90832.34
2022-08-22T15:30:20.351Z,90829.06
2022-08-22T15:32:49.189Z,90839.00
2022-08-22T15:35:38.931Z,90843.47
2022-08-22T15:38:25.236Z,90837.47
2022-08-22T15:40:58.369Z,90831.41
2022-08-22T15:43:44.605Z,90833.91
2022-08-22T15:46:19.044Z,90819.38
2022-08-22T15:49:00.663Z,90821.03
2022-08-22T15:51:51.639Z,90824.00
2022-08-22T15:54:25.024Z,90829.78
2022-08-22T15:56:52.286Z,90844.41
2022-08-22T15:59:26.277Z,90833.75
2022-08-22T16:01:59.025Z,90830.47
2022-08-22T16:04:40.515Z,90838.56
2022-08-22T16:07:36.036Z,90838.59
2022-08-22T16:10:27.144Z,90837.56
2022-08-22T16:13:31.175Z,90835.38
2022-08-22T16:16:03.786Z,90841.88
2022-08-22T16:18:37.143Z,90841.47
2022-08-22T16:21:08.206Z,90844.19
2022-08-22T16:23:56.467Z,90854.41
2022-08-22T16:26:29.601Z,90843.75
2022-08-22T16:29:00.638Z,90846.28
2022-08-22T16:31:30.858Z,90857.25
2022-08-22T16:34:22.191Z,90847.59
2022-08-22T16:37:23.435Z,90848.03
2022-08-22T16:40:14.473Z,90857.94
2022-08-22T16:42:46.509Z,90861.72
2022-08-22T16:45:43.102Z,90862.84
2022-08-22T16:48:35.852Z,90862.41
2022-08-22T16:51:21.362Z,90863.53
2022-08-22T16:53:49.170Z,90857.69
2022-08-22T16:56:53.741Z,90857.97
2022-08-22T16:59:38.382Z,90856.53
2022-08-22T17:02:23.409Z,90853.25
2022-08-22T17:04:55.909Z,90852.13
2022-08-22T17:07:51.995Z,90866.53
2022-08-22T17:10:52.731Z,90853.56
2022-08-22T17:13:28.509Z,90867.19
2022-08-22T17:16:16.112Z,90876.72
2022-08-22T17:18:47.116Z,90879.59
2022-08-22T17:21:51.773Z,90887.16
2022-08-22T17:24:33.557Z,90891.34
2022-08-22T17:27:39.843Z,90895.66
2022-08-22T17:30:15.048Z,90899.84
2022-08-22T17:33:19.390Z,90900.88
2022-08-22T17:35:57.682Z,90900.31
2022-08-22T17:38:49.159Z,90904.50
2022-08-22T17:41:37.410Z,90895.56
2022-08-22T17:44:46.269Z,90875.38
2022-08-22T17:47:19.709Z,90890.44
2022-08-22T17:49:58.191Z,90903.75
2022-08-22T17:52:44.979Z,90906.41
2022-08-22T17:55:34.286Z,90896.31
2022-08-22T17:58:11.787Z,90907.44
2022-08-22T18:00:50.107Z,90894.91
2022-08-22T18:03:28.692Z,90900.97
2022-08-22T18:06:09.597Z,90911.16
2022-08-22T18:09:15.408Z,90911.81
2022-08-22T18:11:56.182Z,90894.78
2022-08-22T18:15:01.084Z,90904.38
2022-08-22T18:17:41.485Z,90904.47
2022-08-22T18:20:25.262Z,90906.03
2022-08-22T18:23:21.411Z,90921.88
2022-08-22T18:26:24.016Z,90919.31
2022-08-22T18:29:06.277Z,90917.16
2022-08-22T18:31:57.551Z,90924.84
2022-08-22T18:34:41.547Z,90929.50
2022-08-22T18:37:35.306Z,90930.78
2022-08-22T18:40:13.382Z,90938.94
2022-08-22T18:42:45.237Z,90941.72
2022-08-22T18:45:18.793Z,90946.84
2022-08-22T18:47:55.656Z,90947.81
2022-08-22T18:50:43.044Z,90946.66
2022-08-22T18:53:45.531Z,90955.97
2022-08-22T18:56:43.636Z,90952.16
2022-08-22T18:59:43.813Z,90959.34
2022-08-22T19:02:17.463Z,90953.88
2022-08-22T19:05:09.944Z,90939.19
2022-08-22T19:07:58.483Z,90955.56
2022-08-22T19:10:34.601Z,90950.25
2022-08-22T19:13:40.186Z,90945.66
2022-08-22T19:16:25.600Z,90949.16
2022-08-22T19:19:08.852Z,90950.47
2022-08-22T19:22:20.926Z,90940.69
2022-08-22T19:25:10.712Z,90940.28
2022-08-22T19:27:57.224Z,90945.16
2022-08-22T19:30:52.106Z,90938.22
2022-08-22T19:33:37.970Z,90929.63
2022-08-22T19:36:09.404Z,90926.34
2022-08-22T19:38:54.166Z,90912.88
2022-08-22T19:41:41.577Z,90931.19
2022-08-22T19:44:20.855Z,90925.06
2022-08-22T19:47:01.549Z,90915.38
2022-08-22T19:49:31.608Z,90925.72
2022-08-22T19:52:40.360Z,90924.97
2022-08-22T19:55:38.169Z,90928.78
2022-08-22T19:58:16.624Z,90939.81
2022-08-22T20:01:00.632Z,90951.19
2022-08-22T20:03:51.742Z,90955.16
2022-08-22T20:06:47.790Z,90958.66
2022-08-22T20:09:23.535Z,90967.41
2022-08-22T20:12:15.687Z,90968.41
2022-08-22T20:14:45.818Z,90961.53
2022-08-22T20:17:24.788Z,90967.25
2022-08-22T20:22:52.684Z,90973.78
2022-08-22T20:25:42.408Z,90979.19
2022-08-22T20:28:33.921Z,90985.25
2022-08-22T20:31:03.603Z,90992.69
2022-08-22T20:33:40.087Z,90986.19
2022-08-22T20:36:16.693Z,90997.22
2022-08-22T20:39:00.253Z,90997.66
2022-08-22T20:41:30.048Z,91000.56
2022-08-22T20:44:06.193Z,90995.25
2022-08-22T20:46:55.042Z,90996.66
2022-08-22T20:49:26.100Z,90995.66
2022-08-22T20:51:55.733Z,91002.41
2022-08-22T20:54:25.126Z,90990.84
2022-08-22T20:56:57.315Z,90987.09
2022-08-22T20:59:23.913Z,90980.63
2022-08-22T21:01:57.391Z,90973.13
2022-08-22T21:04:31.469Z,90967.31
2022-08-22T21:07:01.752Z,90964.03
2022-08-22T21:09:47.707Z,90974.47
2022-08-22T21:12:15.000Z,90980.22
2022-08-22T21:14:46.275Z,90981.66
2022-08-22T21:17:20.480Z,90979.25
2022-08-22T21:19:47.727Z,90972.56
2022-08-22T21:22:27.081Z,90969.94
2022-08-22T21:24:59.670Z,90984.97
2022-08-22T21:27:31.941Z,90980.75
2022-08-22T21:30:02.314Z,90982.41
2022-08-22T21:32:34.567Z,90980.66
2022-08-22T21:35:03.904Z,90967.97
2022-08-22T21:37:43.665Z,90972.44
2022-08-22T21:40:23.952Z,90976.81
2022-08-22T21:43:11.906Z,90967.97
2022-08-22T21:45:38.515Z,90978.94
2022-08-22T21:48:33.415Z,90969.97
2022-08-22T21:51:23.302Z,90965.16
2022-08-22T21:53:56.023Z,90973.69
2022-08-22T21:56:36.800Z,90969.53
2022-08-22T21:59:25.022Z,90969.78
2022-08-22T22:01:52.750Z,90963.22
2022-08-22T22:04:22.221Z,90963.88
2022-08-22T22:06:49.072Z,90973.28
2022-08-22T22:09:15.745Z,90946.28
2022-08-22T22:11:42.465Z,90978.25
2022-08-22T22:14:09.180Z,90977.72
2022-08-22T22:16:38.016Z,90977.81
2022-08-22T22:19:08.481Z,90976.09
2022-08-22T22:21:36.678Z,90975.44
2022-08-22T22:24:04.629Z,90980.75
2022-08-22T22:26:31.465Z,90982.25
2022-08-22T22:28:59.246Z,90975.78
2022-08-22T22:31:28.439Z,90971.13
2022-08-22T22:33:55.285Z,90982.72
2022-08-22T22:36:25.398Z,90979.00
2022-08-22T22:38:55.267Z,90990.47
2022-08-22T22:41:25.504Z,90977.28
2022-08-22T22:43:54.063Z,91002.13
2022-08-22T22:46:22.461Z,91001.72
2022-08-22T22:48:49.650Z,91002.97
2022-08-22T22:51:16.511Z,90999.81
2022-08-22T22:53:44.867Z,90994.00
2022-08-22T22:56:18.071Z,91010.25
2022-08-22T22:58:49.998Z,91014.63
2022-08-22T23:01:20.535Z,91006.97
2022-08-22T23:03:48.689Z,91008.44
2022-08-22T23:06:18.844Z,91001.06
2022-08-22T23:08:46.087Z,90994.19
2022-08-22T23:11:21.443Z,91000.97
2022-08-22T23:13:49.790Z,91010.09
2022-08-22T23:16:20.117Z,91013.91
2022-08-22T23:18:47.894Z,90992.53
2022-08-22T23:21:22.089Z,91000.81
2022-08-22T23:23:49.375Z,91002.03
2022-08-22T23:26:16.380Z,91009.47
2022-08-22T23:28:43.760Z,90998.44
2022-08-22T23:31:18.450Z,91002.41
2022-08-22T23:33:45.334Z,91004.75
2022-08-22T23:36:14.414Z,90996.44
2022-08-22T23:38:41.197Z,90992.00
2022-08-22T23:41:10.005Z,90994.19
2022-08-22T23:43:37.240Z,90988.69
2022-08-22T23:46:03.950Z,91006.44
2022-08-22T23:48:30.749Z,91014.88
2022-08-22T23:50:57.430Z,91044.56
2022-08-22T23:53:24.138Z,91046.41
2022-08-22T23:55:50.835Z,91070.09
2022-08-22T23:58:18.129Z,91053.25
